createdAt,value
2017-01-18T00:00:50.692Z,95.92
2017-01-18T00:02:12.875Z,96.01
2017-01-18T00:03:34.940Z,96.11
2017-01-18T00:04:58.009Z,95.83
2017-01-18T00:06:20.881Z,95.92
2017-01-18T00:07:43.869Z,95.92
2017-01-18T00:09:06.542Z,96.2
2017-01-18T00:10:28.771Z,96.39
2017-01-18T00:11:51.671Z,95.64
2017-01-18T00:13:13.902Z,95.73
2017-01-18T00:14:36.492Z,96.11
2017-01-18T00:15:59.011Z,96.11
2017-01-18T00:17:21.650Z,96.01
2017-01-18T00:18:44.115Z,95.73
2017-01-18T00:20:06.589Z,95.97
2017-01-18T00:21:28.679Z,96.2
2017-01-18T00:22:51.567Z,95.83
2017-01-18T00:24:14.504Z,95.92
2017-01-18T00:25:37.548Z,95.64
2017-01-18T00:27:00.421Z,95.73
2017-01-18T00:28:22.883Z,95.54
2017-01-18T00:29:45.880Z,95.92
2017-01-18T00:31:08.383Z,95.64
2017-01-18T00:32:30.857Z,95.83
2017-01-18T00:33:52.924Z,95.54
2017-01-18T00:35:15.817Z,95.36
2017-01-18T00:36:38.020Z,95.83
2017-01-18T00:38:00.583Z,96.01
2017-01-18T00:39:23.673Z,96.2
2017-01-18T00:40:46.742Z,96.3
2017-01-18T00:42:09.582Z,96.39
2017-01-18T00:43:32.064Z,97.29
2017-01-18T00:44:54.979Z,97
2017-01-18T00:46:18.048Z,97.1
2017-01-18T00:47:40.918Z,97.19
2017-01-18T00:49:03.612Z,97
2017-01-18T00:50:26.088Z,96.81
2017-01-18T00:51:48.949Z,96.91
2017-01-18T00:53:11.390Z,97.19
2017-01-18T00:54:34.258Z,96.44
2017-01-18T00:55:57.138Z,96.53
2017-01-18T00:57:20.082Z,96.53
2017-01-18T00:58:42.544Z,95.87
2017-01-18T01:00:05.497Z,95.78
2017-01-18T01:01:28.451Z,95.68
2017-01-18T01:02:51.324Z,95.64
2017-01-18T01:04:13.412Z,96.3
2017-01-18T01:05:36.285Z,96.58
2017-01-18T01:06:59.002Z,96.48
2017-01-18T01:08:21.082Z,96.48
2017-01-18T01:09:43.143Z,96.77
2017-01-18T01:11:05.603Z,97.05
2017-01-18T01:12:28.597Z,96.39
2017-01-18T01:13:51.080Z,96.44
2017-01-18T01:15:13.533Z,96.53
2017-01-18T01:16:36.448Z,96.01
2017-01-18T01:17:59.303Z,95.83
2017-01-18T01:19:22.287Z,95.92
2017-01-18T01:20:45.150Z,95.64
2017-01-18T01:22:08.053Z,95.92
2017-01-18T01:23:30.536Z,95.83
2017-01-18T01:24:52.609Z,96.11
2017-01-18T01:26:15.078Z,96.01
2017-01-18T01:27:37.688Z,96.11
2017-01-18T01:29:00.622Z,95.64
2017-01-18T01:30:23.562Z,95.73
2017-01-18T01:31:46.040Z,96.48
2017-01-18T01:33:08.910Z,96.67
2017-01-18T01:34:31.885Z,96.58
2017-01-18T01:35:53.543Z,96.2
2017-01-18T01:37:16.411Z,96.48
2017-01-18T01:38:39.304Z,96.48
2017-01-18T01:40:01.861Z,96.3
2017-01-18T01:41:24.739Z,96.2
2017-01-18T01:42:47.218Z,95.83
2017-01-18T01:44:10.130Z,95.64
2017-01-18T01:45:32.993Z,96.39
2017-01-18T01:46:55.523Z,96.58
2017-01-18T01:48:18.384Z,96.58
2017-01-18T01:49:40.828Z,96.11
2017-01-18T01:51:03.701Z,96.3
2017-01-18T01:52:26.622Z,96.3
2017-01-18T01:53:49.085Z,96.48
2017-01-18T01:55:11.965Z,96.86
2017-01-18T01:56:34.421Z,96.39
2017-01-18T01:57:56.971Z,96.39
2017-01-18T01:59:19.848Z,96.39
2017-01-18T02:00:41.522Z,96.67
2017-01-18T02:02:04.126Z,96.48
2017-01-18T02:03:26.994Z,96.39
2017-01-18T02:04:49.960Z,96.48
2017-01-18T02:06:12.873Z,97.05
2017-01-18T02:07:35.732Z,97.05
2017-01-18T02:08:58.242Z,96.48
2017-01-18T02:10:19.911Z,97.05
2017-01-18T02:11:42.506Z,96.77
2017-01-18T02:13:05.399Z,97.33
2017-01-18T02:14:28.341Z,97.52
2017-01-18T02:15:51.238Z,96.86
2017-01-18T02:17:14.325Z,96.95
2017-01-18T02:18:37.219Z,96.95
2017-01-18T02:20:00.126Z,97.05
2017-01-18T02:21:22.953Z,96.86
2017-01-18T02:22:45.815Z,97.24
2017-01-18T02:24:08.728Z,97.05
2017-01-18T02:25:31.611Z,96.77
2017-01-18T02:26:54.081Z,96.86
2017-01-18T02:28:16.529Z,96.3
2017-01-18T02:29:38.614Z,96.39
2017-01-18T02:31:01.490Z,96.39
2017-01-18T02:32:24.381Z,95.64
2017-01-18T02:33:47.419Z,95.83
2017-01-18T02:35:09.870Z,95.64
2017-01-18T02:36:32.034Z,95.92
2017-01-18T02:37:54.874Z,96.58
2017-01-18T02:39:17.055Z,96.58
2017-01-18T02:40:39.572Z,95.92
2017-01-18T02:42:02.470Z,95.92
2017-01-18T02:43:24.962Z,95.73
2017-01-18T02:44:48.068Z,95.73
2017-01-18T02:46:10.531Z,95.07
2017-01-18T02:47:33.412Z,95.07
2017-01-18T02:48:56.256Z,95.45
2017-01-18T02:50:18.360Z,95.54
2017-01-18T02:51:40.870Z,95.92
2017-01-18T02:53:03.349Z,95.92
2017-01-18T02:54:25.518Z,95.92
2017-01-18T02:55:47.991Z,95.64
2017-01-18T02:57:10.470Z,95.45
2017-01-18T02:58:33.647Z,96.48
2017-01-18T02:59:56.514Z,97.14
2017-01-18T03:01:19.001Z,96.77
2017-01-18T03:02:41.481Z,97.71
2017-01-18T03:04:03.936Z,96.95
2017-01-18T03:05:26.489Z,97.14
2017-01-18T03:06:48.954Z,96.95
2017-01-18T03:08:11.879Z,96.95
2017-01-18T03:09:34.358Z,97.14
2017-01-18T03:10:57.260Z,96.95
2017-01-18T03:12:20.237Z,96.86
2017-01-18T03:13:42.760Z,96.3
2017-01-18T03:15:05.676Z,97.24
2017-01-18T03:16:27.752Z,96.48
2017-01-18T03:17:49.908Z,96.39
2017-01-18T03:19:12.888Z,96.39
2017-01-18T03:20:35.810Z,96.01
2017-01-18T03:21:58.795Z,96.48
2017-01-18T03:23:21.664Z,96.2
2017-01-18T03:24:44.578Z,96.3
2017-01-18T03:26:07.053Z,96.39
2017-01-18T03:27:29.517Z,96.58
2017-01-18T03:28:51.984Z,96.48
2017-01-18T03:30:14.442Z,96.58
2017-01-18T03:31:36.957Z,96.39
2017-01-18T03:32:59.426Z,96.3
2017-01-18T03:34:21.899Z,96.39
2017-01-18T03:35:44.838Z,96.2
2017-01-18T03:37:07.312Z,97.05
2017-01-18T03:38:30.178Z,96.48
2017-01-18T03:39:53.087Z,96.39
2017-01-18T03:41:15.939Z,96.39
2017-01-18T03:42:38.519Z,96.39
2017-01-18T03:44:01.637Z,96.95
2017-01-18T03:45:24.478Z,97.05
2017-01-18T03:46:46.602Z,97.33
2017-01-18T03:48:09.470Z,97.33
2017-01-18T03:49:32.042Z,97.05
2017-01-18T03:50:54.513Z,96.39
2017-01-18T03:52:16.975Z,96.77
2017-01-18T03:53:39.439Z,96.95
2017-01-18T03:55:01.909Z,96.95
2017-01-18T03:56:24.379Z,96.01
2017-01-18T03:57:47.338Z,96.2
2017-01-18T03:59:10.195Z,95.73
2017-01-18T04:00:33.064Z,96.48
2017-01-18T04:01:55.156Z,96.3
2017-01-18T04:03:18.061Z,96.3
2017-01-18T04:04:40.537Z,96.11
2017-01-18T04:06:03.006Z,96.48
2017-01-18T04:07:25.059Z,95.92
2017-01-18T04:08:47.557Z,95.92
2017-01-18T04:10:10.662Z,95.64
2017-01-18T04:11:33.539Z,96.39
2017-01-18T04:12:55.196Z,96.48
2017-01-18T04:14:17.656Z,96.11
2017-01-18T04:15:40.180Z,96.2
2017-01-18T04:17:03.062Z,96.48
2017-01-18T04:18:25.110Z,96.3
2017-01-18T04:19:47.845Z,95.64
2017-01-18T04:21:10.363Z,95.45
2017-01-18T04:22:32.457Z,95.83
2017-01-18T04:23:55.401Z,95.92
2017-01-18T04:25:18.254Z,95.92
2017-01-18T04:26:41.119Z,95.64
2017-01-18T04:28:04.135Z,95.92
2017-01-18T04:29:26.404Z,95.83
2017-01-18T04:30:48.856Z,96.11
2017-01-18T04:32:11.035Z,95.64
2017-01-18T04:33:33.950Z,96.01
2017-01-18T04:34:57.003Z,95.92
2017-01-18T04:36:19.150Z,95.73
2017-01-18T04:37:42.063Z,95.73
2017-01-18T04:39:04.939Z,95.73
2017-01-18T04:40:27.796Z,95.64
2017-01-18T04:41:50.667Z,95.26
2017-01-18T04:43:13.670Z,95.54
2017-01-18T04:44:36.540Z,96.01
2017-01-18T04:45:59.444Z,96.11
2017-01-18T04:47:22.317Z,95.92
2017-01-18T04:48:45.313Z,95.64
2017-01-18T04:50:08.178Z,96.58
2017-01-18T04:51:29.951Z,96.48
2017-01-18T04:52:52.404Z,96.39
2017-01-18T04:54:14.866Z,96.95
2017-01-18T04:55:37.351Z,96.48
2017-01-18T04:56:59.013Z,96.2
2017-01-18T04:58:22.004Z,96.48
2017-01-18T04:59:44.875Z,96.95
2017-01-18T05:01:07.516Z,96.86
2017-01-18T05:02:30.399Z,96.86
2017-01-18T05:03:53.024Z,96.95
2017-01-18T05:05:15.103Z,96.48
2017-01-18T05:06:37.601Z,96.39
2017-01-18T05:08:00.215Z,96.11
2017-01-18T05:09:23.095Z,96.58
2017-01-18T05:10:45.570Z,96.48
2017-01-18T05:12:08.026Z,96.39
2017-01-18T05:13:30.501Z,96.95
2017-01-18T05:14:53.415Z,97.24
2017-01-18T05:16:15.511Z,96.39
2017-01-18T05:17:38.362Z,96.3
2017-01-18T05:19:00.427Z,96.3
2017-01-18T05:20:22.500Z,96.48
2017-01-18T05:21:44.574Z,96.48
2017-01-18T05:23:07.022Z,95.92
2017-01-18T05:24:29.500Z,96.3
2017-01-18T05:25:52.094Z,95.83
2017-01-18T05:27:14.936Z,95.64
2017-01-18T05:28:37.725Z,95.64
2017-01-18T05:30:00.392Z,95.83
2017-01-18T05:31:23.259Z,95.83
2017-01-18T05:32:45.714Z,95.73
2017-01-18T05:34:07.371Z,95.92
2017-01-18T05:35:30.208Z,95.83
2017-01-18T05:36:52.776Z,95.97
2017-01-18T05:38:15.656Z,96.44
2017-01-18T05:39:38.682Z,96.63
2017-01-18T05:41:01.570Z,96.53
2017-01-18T05:42:24.402Z,96.44
2017-01-18T05:43:46.472Z,96.53
2017-01-18T05:45:08.934Z,95.87
2017-01-18T05:46:31.535Z,96.15
2017-01-18T05:47:53.593Z,95.97
2017-01-18T05:49:16.117Z,96.63
2017-01-18T05:50:38.980Z,96.15
2017-01-18T05:52:01.886Z,96.63
2017-01-18T05:53:24.347Z,96.34
2017-01-18T05:54:47.223Z,96.06
2017-01-18T05:56:09.702Z,95.97
2017-01-18T05:57:32.566Z,96.25
2017-01-18T05:58:55.509Z,96.44
2017-01-18T06:00:18.145Z,96.44
2017-01-18T06:01:41.015Z,96.34
2017-01-18T06:03:03.503Z,96.44
2017-01-18T06:04:25.574Z,96.72
2017-01-18T06:05:48.058Z,96.15
2017-01-18T06:07:10.536Z,96.44
2017-01-18T06:08:33.428Z,96.53
2017-01-18T06:09:56.316Z,96.06
2017-01-18T06:11:19.211Z,96.34
2017-01-18T06:12:41.709Z,96.53
2017-01-18T06:14:04.315Z,96.53
2017-01-18T06:15:27.202Z,96.15
2017-01-18T06:16:49.655Z,96.06
2017-01-18T06:18:12.115Z,96.15
2017-01-18T06:19:34.589Z,96.44
2017-01-18T06:20:57.029Z,96.06
2017-01-18T06:22:19.922Z,96.63
2017-01-18T06:23:42.396Z,96.44
2017-01-18T06:25:05.283Z,96.44
2017-01-18T06:26:28.248Z,96.34
2017-01-18T06:27:51.161Z,96.44
2017-01-18T06:29:14.183Z,95.5
2017-01-18T06:30:36.312Z,95.78
2017-01-18T06:31:58.777Z,96.25
2017-01-18T06:33:20.859Z,96.44
2017-01-18T06:34:43.784Z,96.53
2017-01-18T06:36:05.972Z,96.63
2017-01-18T06:37:28.436Z,96.63
2017-01-18T06:38:50.894Z,97
2017-01-18T06:40:13.885Z,96.63
2017-01-18T06:41:36.909Z,96.44
2017-01-18T06:42:59.776Z,96.53
2017-01-18T06:44:22.389Z,95.4
2017-01-18T06:45:45.499Z,95.68
2017-01-18T06:47:08.549Z,95.97
2017-01-18T06:48:31.005Z,96.34
2017-01-18T06:49:53.959Z,96.53
2017-01-18T06:51:16.822Z,96.44
2017-01-18T06:52:39.681Z,96.91
2017-01-18T06:54:01.919Z,96.53
2017-01-18T06:55:24.363Z,96.15
2017-01-18T06:56:46.843Z,95.97
2017-01-18T06:58:09.332Z,95.97
2017-01-18T06:59:32.043Z,96.25
2017-01-18T07:00:54.968Z,95.97
2017-01-18T07:02:17.892Z,96.15
2017-01-18T07:03:40.755Z,96.25
2017-01-18T07:05:03.260Z,96.44
2017-01-18T07:06:25.748Z,96.44
2017-01-18T07:07:48.675Z,96.06
2017-01-18T07:09:11.171Z,96.44
2017-01-18T07:10:34.177Z,96.63
2017-01-18T07:11:56.626Z,96.25
2017-01-18T07:13:18.846Z,95.68
2017-01-18T07:14:41.501Z,96.34
2017-01-18T07:16:03.183Z,95.68
2017-01-18T07:17:25.307Z,96.34
2017-01-18T07:18:47.381Z,95.97
2017-01-18T07:20:09.831Z,96.34
2017-01-18T07:21:32.450Z,96.44
2017-01-18T07:22:55.365Z,95.87
2017-01-18T07:24:17.837Z,96.15
2017-01-18T07:25:40.692Z,96.34
2017-01-18T07:27:03.573Z,95.87
2017-01-18T07:28:25.645Z,95.97
2017-01-18T07:29:48.499Z,95.78
2017-01-18T07:31:10.676Z,95.78
2017-01-18T07:32:33.187Z,95.97
2017-01-18T07:33:55.771Z,96.44
2017-01-18T07:35:17.423Z,96.44
2017-01-18T07:36:40.386Z,96.15
2017-01-18T07:38:02.841Z,96.44
2017-01-18T07:39:25.407Z,96.63
2017-01-18T07:40:48.417Z,96.34
2017-01-18T07:42:10.537Z,95.68
2017-01-18T07:43:33.408Z,95.97
2017-01-18T07:44:55.918Z,95.68
2017-01-18T07:46:18.385Z,96.15
2017-01-18T07:47:40.667Z,95.97
2017-01-18T07:49:03.138Z,95.97
2017-01-18T07:50:26.021Z,96.01
2017-01-18T07:51:48.464Z,96.11
2017-01-18T07:53:10.944Z,96.68
2017-01-18T07:54:33.396Z,95.73
2017-01-18T07:55:56.348Z,95.73
2017-01-18T07:57:18.811Z,95.54
2017-01-18T07:58:41.445Z,95.73
2017-01-18T08:00:03.900Z,95.64
2017-01-18T08:01:26.387Z,95.92
2017-01-18T08:02:48.944Z,95.54
2017-01-18T08:04:11.435Z,96.11
2017-01-18T08:05:34.504Z,95.92
2017-01-18T08:06:57.408Z,95.73
2017-01-18T08:08:20.343Z,96.11
2017-01-18T08:09:42.811Z,95.92
2017-01-18T08:11:05.384Z,95.26
2017-01-18T08:12:27.903Z,94.98
2017-01-18T08:13:50.983Z,94.6
2017-01-18T08:15:13.426Z,94.79
2017-01-18T08:16:35.864Z,94.79
2017-01-18T08:17:57.920Z,95.45
2017-01-18T08:19:20.901Z,94.7
2017-01-18T08:20:43.944Z,95.17
2017-01-18T08:22:06.408Z,95.83
2017-01-18T08:23:29.274Z,95.54
2017-01-18T08:24:52.213Z,96.01
2017-01-18T08:26:15.087Z,95.07
2017-01-18T08:27:38.120Z,95.64
2017-01-18T08:29:00.786Z,95.07
2017-01-18T08:30:23.267Z,95.07
2017-01-18T08:31:45.859Z,95.54
2017-01-18T08:33:08.741Z,95.54
2017-01-18T08:34:31.695Z,95.45
2017-01-18T08:35:54.286Z,95.17
2017-01-18T08:37:17.151Z,94.13
2017-01-18T08:38:39.594Z,94.51
2017-01-18T08:40:02.444Z,95.07
2017-01-18T08:41:25.016Z,95.26
2017-01-18T08:42:48.102Z,94.6
2017-01-18T08:44:10.563Z,94.74
2017-01-18T08:45:33.091Z,95.12
2017-01-18T08:46:55.142Z,95.21
2017-01-18T08:48:18.238Z,95.03
2017-01-18T08:49:41.106Z,95.4
2017-01-18T08:51:03.681Z,95.03
2017-01-18T08:52:26.726Z,95.03
2017-01-18T08:53:50.282Z,94.74
2017-01-18T08:55:13.127Z,94.37
2017-01-18T08:56:35.235Z,94.46
2017-01-18T08:57:58.145Z,94.56
2017-01-18T08:59:20.731Z,94.37
2017-01-18T09:00:43.576Z,94.74
2017-01-18T09:02:06.627Z,93.99
2017-01-18T09:03:29.520Z,93.61
2017-01-18T09:04:52.009Z,93.13
2017-01-18T09:06:14.864Z,93.51
2017-01-18T09:07:37.700Z,93.42
2017-01-18T09:09:00.607Z,93.61
2017-01-18T09:10:23.480Z,93.99
2017-01-18T09:11:46.376Z,93.7
2017-01-18T09:13:08.849Z,93.51
2017-01-18T09:14:31.730Z,93.42
2017-01-18T09:15:54.320Z,93.42
2017-01-18T09:17:16.971Z,93.32
2017-01-18T09:18:39.970Z,93.47
2017-01-18T09:20:02.848Z,93.37
2017-01-18T09:21:25.327Z,93.56
2017-01-18T09:22:47.827Z,93.37
2017-01-18T09:24:10.694Z,93.28
2017-01-18T09:25:33.658Z,93.84
2017-01-18T09:26:56.510Z,93.18
2017-01-18T09:28:19.621Z,92.99
2017-01-18T09:29:42.547Z,93.28
2017-01-18T09:31:05.017Z,92.61
2017-01-18T09:32:27.517Z,92.8
2017-01-18T09:33:49.693Z,92.52
2017-01-18T09:35:12.176Z,91.58
2017-01-18T09:36:34.715Z,90.91
2017-01-18T09:37:56.769Z,91.48
2017-01-18T09:39:19.756Z,91.96
2017-01-18T09:40:42.634Z,91.77
2017-01-18T09:42:04.922Z,91.86
2017-01-18T09:43:27.805Z,92
2017-01-18T09:44:50.727Z,91.43
2017-01-18T09:46:13.265Z,90.86
2017-01-18T09:47:36.171Z,91.53
2017-01-18T09:48:59.031Z,89.83
2017-01-18T09:50:21.514Z,90.77
2017-01-18T09:51:43.681Z,91.24
2017-01-18T09:53:06.140Z,91.05
2017-01-18T09:54:28.596Z,90.49
2017-01-18T09:55:51.567Z,89.36
2017-01-18T09:57:14.036Z,89.92
2017-01-18T09:58:36.994Z,90.3
2017-01-18T09:59:59.895Z,89.83
2017-01-18T10:01:22.448Z,89.83
2017-01-18T10:02:45.016Z,89.73
2017-01-18T10:04:07.506Z,90.11
2017-01-18T10:05:29.577Z,89.45
2017-01-18T10:06:52.559Z,90.2
2017-01-18T10:08:15.043Z,89.92
2017-01-18T10:09:38.047Z,90.2
2017-01-18T10:11:00.914Z,89.64
2017-01-18T10:12:23.784Z,89.64
2017-01-18T10:13:46.666Z,89.54
2017-01-18T10:15:09.508Z,89.83
2017-01-18T10:16:32.425Z,90.49
2017-01-18T10:17:54.889Z,90.68
2017-01-18T10:19:17.901Z,90.11
2017-01-18T10:20:40.421Z,89.54
2017-01-18T10:22:02.894Z,90.01
2017-01-18T10:23:24.986Z,91.15
2017-01-18T10:24:47.654Z,90.68
2017-01-18T10:26:10.536Z,90.3
2017-01-18T10:27:32.984Z,89.64
2017-01-18T10:28:55.841Z,89.45
2017-01-18T10:30:18.741Z,90.3
2017-01-18T10:31:41.612Z,89.73
2017-01-18T10:33:04.187Z,89.45
2017-01-18T10:34:26.678Z,89.73
2017-01-18T10:35:49.168Z,89.36
2017-01-18T10:37:11.252Z,87.84
2017-01-18T10:38:33.745Z,86.8
2017-01-18T10:39:56.196Z,89.07
2017-01-18T10:41:18.816Z,90.01
2017-01-18T10:42:41.729Z,89.31
2017-01-18T10:44:04.219Z,89.59
2017-01-18T10:45:27.083Z,88.74
2017-01-18T10:46:49.555Z,88.12
2017-01-18T10:48:12.550Z,88.12
2017-01-18T10:49:35.424Z,86.8
2017-01-18T10:50:58.413Z,88.36
2017-01-18T10:52:21.047Z,89.4
2017-01-18T10:53:43.606Z,89.5
2017-01-18T10:55:06.493Z,89.12
2017-01-18T10:56:29.497Z,87.88
2017-01-18T10:57:51.995Z,87.32
2017-01-18T10:59:14.889Z,87.13
2017-01-18T11:00:37.755Z,87.04
2017-01-18T11:02:00.265Z,86.75
2017-01-18T11:03:22.869Z,86.32
2017-01-18T11:04:45.349Z,86.6
2017-01-18T11:06:08.296Z,85.94
2017-01-18T11:07:30.782Z,86.51
2017-01-18T11:08:53.647Z,85.9
2017-01-18T11:10:15.699Z,86.04
2017-01-18T11:11:37.902Z,85
2017-01-18T11:13:00.396Z,85.47
2017-01-18T11:14:22.886Z,85.57
2017-01-18T11:15:45.501Z,84.23
2017-01-18T11:17:08.144Z,84.33
2017-01-18T11:18:30.240Z,84.42
2017-01-18T11:19:53.120Z,84.52
2017-01-18T11:21:15.864Z,83.58
2017-01-18T11:22:37.973Z,81.96
2017-01-18T11:24:00.437Z,83.95
2017-01-18T11:25:23.343Z,83.58
2017-01-18T11:26:46.250Z,82.91
2017-01-18T11:28:08.789Z,83.48
2017-01-18T11:29:31.297Z,84.14
2017-01-18T11:30:53.759Z,83.29
2017-01-18T11:32:16.637Z,83.76
2017-01-18T11:33:39.503Z,82.91
2017-01-18T11:35:01.978Z,84.42
2017-01-18T11:36:24.860Z,83.67
2017-01-18T11:37:47.770Z,83.29
2017-01-18T11:39:10.250Z,84.05
2017-01-18T11:40:32.853Z,84.9
2017-01-18T11:41:55.831Z,84.14
2017-01-18T11:43:18.358Z,85.28
2017-01-18T11:44:40.963Z,84.71
2017-01-18T11:46:03.063Z,83.29
2017-01-18T11:47:26.108Z,84.52
2017-01-18T11:48:48.985Z,84.05
2017-01-18T11:50:11.505Z,83.67
2017-01-18T11:51:34.007Z,84.61
2017-01-18T11:52:56.497Z,84.42
2017-01-18T11:54:19.438Z,84.33
2017-01-18T11:55:41.603Z,84.42
2017-01-18T11:57:04.576Z,84.71
2017-01-18T11:58:26.749Z,84.9
2017-01-18T11:59:49.241Z,84.52
2017-01-18T12:01:11.367Z,84.9
2017-01-18T12:02:33.987Z,84.81
2017-01-18T12:03:56.889Z,84.23
2017-01-18T12:05:19.878Z,84.33
2017-01-18T12:06:42.754Z,84.42
2017-01-18T12:08:05.269Z,84.42
2017-01-18T12:09:28.151Z,84.33
2017-01-18T12:10:50.337Z,84.71
2017-01-18T12:12:13.229Z,84.33
2017-01-18T12:13:35.688Z,84.61
2017-01-18T12:14:58.545Z,85.09
2017-01-18T12:16:21.065Z,85.28
2017-01-18T12:17:44.067Z,85.38
2017-01-18T12:19:06.160Z,84.14
2017-01-18T12:20:29.026Z,84.42
2017-01-18T12:21:51.929Z,84.52
2017-01-18T12:23:14.558Z,84.05
2017-01-18T12:24:37.027Z,84.23
2017-01-18T12:25:59.928Z,84.81
2017-01-18T12:27:22.829Z,85
2017-01-18T12:28:45.299Z,83.95
2017-01-18T12:30:08.198Z,81.96
2017-01-18T12:31:30.670Z,83.58
2017-01-18T12:32:53.564Z,84.23
2017-01-18T12:34:15.727Z,84.71
2017-01-18T12:35:38.371Z,84.81
2017-01-18T12:37:01.255Z,84.52
2017-01-18T12:38:24.169Z,85
2017-01-18T12:39:46.657Z,84.61
2017-01-18T12:41:09.566Z,83.48
2017-01-18T12:42:32.449Z,83.39
2017-01-18T12:43:55.374Z,83.86
2017-01-18T12:45:18.248Z,83.01
2017-01-18T12:46:41.141Z,83.48
2017-01-18T12:48:03.622Z,84.33
2017-01-18T12:49:26.305Z,84.14
2017-01-18T12:50:48.803Z,84.9
2017-01-18T12:52:11.289Z,82.82
2017-01-18T12:53:33.780Z,82.63
2017-01-18T12:54:56.693Z,83.95
2017-01-18T12:56:18.768Z,84.05
2017-01-18T12:57:41.723Z,83.1
2017-01-18T12:59:03.879Z,83.95
2017-01-18T13:00:26.394Z,81.49
2017-01-18T13:01:48.888Z,82.72
2017-01-18T13:03:11.777Z,83.58
2017-01-18T13:04:33.956Z,83.58
2017-01-18T13:05:56.439Z,83.76
2017-01-18T13:07:19.334Z,83.95
2017-01-18T13:08:41.464Z,80.83
2017-01-18T13:10:03.129Z,81.36
2017-01-18T13:11:25.617Z,82.4
2017-01-18T13:12:48.245Z,83.44
2017-01-18T13:14:10.377Z,82.68
2017-01-18T13:15:33.299Z,84.29
2017-01-18T13:16:55.805Z,84.61
2017-01-18T13:18:18.794Z,83.86
2017-01-18T13:19:40.867Z,83.2
2017-01-18T13:21:03.435Z,84.61
2017-01-18T13:22:25.638Z,83.58
2017-01-18T13:23:48.117Z,83.48
2017-01-18T13:25:11.181Z,83.58
2017-01-18T13:26:33.636Z,83.29
2017-01-18T13:27:56.120Z,83.48
2017-01-18T13:29:18.995Z,84.14
2017-01-18T13:30:40.707Z,84.05
2017-01-18T13:32:03.306Z,83.67
2017-01-18T13:33:26.344Z,83.29
2017-01-18T13:34:48.856Z,83.39
2017-01-18T13:36:11.357Z,83.2
2017-01-18T13:37:33.038Z,82.15
2017-01-18T13:38:55.982Z,81.77
2017-01-18T13:40:18.847Z,81.68
2017-01-18T13:41:41.353Z,82.15
2017-01-18T13:43:03.906Z,82.63
2017-01-18T13:44:25.962Z,82.53
2017-01-18T13:45:48.926Z,82.72
2017-01-18T13:47:11.851Z,83.1
2017-01-18T13:48:33.948Z,82.25
2017-01-18T13:49:56.839Z,81.12
2017-01-18T13:51:19.935Z,81.77
2017-01-18T13:52:42.845Z,82.63
2017-01-18T13:54:05.702Z,82.44
2017-01-18T13:55:28.685Z,83.01
2017-01-18T13:56:51.175Z,82.25
2017-01-18T13:58:13.327Z,82.15
2017-01-18T13:59:36.207Z,81.26
2017-01-18T14:00:58.703Z,82.12
2017-01-18T14:02:21.236Z,82.59
2017-01-18T14:03:43.739Z,83.72
2017-01-18T14:05:06.667Z,84.95
2017-01-18T14:06:29.535Z,83.63
2017-01-18T14:07:52.473Z,83.53
2017-01-18T14:09:14.546Z,83.25
2017-01-18T14:10:36.620Z,83.82
2017-01-18T14:11:59.484Z,83.15
2017-01-18T14:13:22.365Z,83.25
2017-01-18T14:14:45.294Z,83.63
2017-01-18T14:16:07.755Z,83.82
2017-01-18T14:17:30.745Z,84.58
2017-01-18T14:18:52.872Z,84.2
2017-01-18T14:20:15.361Z,83.44
2017-01-18T14:21:37.843Z,83.25
2017-01-18T14:23:00.315Z,83.53
2017-01-18T14:24:23.261Z,83.25
2017-01-18T14:25:46.157Z,83.63
2017-01-18T14:27:09.050Z,84.48
2017-01-18T14:28:31.974Z,84.29
2017-01-18T14:29:54.243Z,85.14
2017-01-18T14:31:17.136Z,83.91
2017-01-18T14:32:40.095Z,84.2
2017-01-18T14:34:03.003Z,85.95
2017-01-18T14:35:24.543Z,86.47
2017-01-18T14:36:47.013Z,86.85
2017-01-18T14:38:09.935Z,86.85
2017-01-18T14:39:32.694Z,86.09
2017-01-18T14:40:55.184Z,86.33
2017-01-18T14:42:17.765Z,85.66
2017-01-18T14:43:40.782Z,86.23
2017-01-18T14:45:03.257Z,85.38
2017-01-18T14:46:26.283Z,85.95
2017-01-18T14:47:48.483Z,86.9
2017-01-18T14:49:10.697Z,87.27
2017-01-18T14:50:33.234Z,87.08
2017-01-18T14:51:55.310Z,86.04
2017-01-18T14:53:17.841Z,86.61
2017-01-18T14:54:40.767Z,85.85
2017-01-18T14:56:03.645Z,86.42
2017-01-18T14:57:26.646Z,86.8
2017-01-18T14:58:47.947Z,87.27
2017-01-18T15:00:10.904Z,86.8
2017-01-18T15:01:32.962Z,87.37
2017-01-18T15:02:55.084Z,86.52
2017-01-18T15:04:17.600Z,86.52
2017-01-18T15:05:40.103Z,85.95
2017-01-18T15:07:02.610Z,86.99
2017-01-18T15:08:25.606Z,87.18
2017-01-18T15:09:48.108Z,87.27
2017-01-18T15:11:10.717Z,87.37
2017-01-18T15:12:33.200Z,87.27
2017-01-18T15:13:55.724Z,86.99
2017-01-18T15:15:18.658Z,87.46
2017-01-18T15:16:41.189Z,86.99
2017-01-18T15:18:03.347Z,86.8
2017-01-18T15:19:26.143Z,87.55
2017-01-18T15:20:48.639Z,87.46
2017-01-18T15:22:11.111Z,87.74
2017-01-18T15:23:33.670Z,87.93
2017-01-18T15:24:56.157Z,88.6
2017-01-18T15:26:18.284Z,88.6
2017-01-18T15:27:39.972Z,88.41
2017-01-18T15:29:02.966Z,88.12
2017-01-18T15:30:25.836Z,88.79
2017-01-18T15:31:48.939Z,88.79
2017-01-18T15:33:11.968Z,88.98
2017-01-18T15:34:34.065Z,88.98
2017-01-18T15:35:56.977Z,89.17
2017-01-18T15:37:19.959Z,88.88
2017-01-18T15:38:42.489Z,88.98
2017-01-18T15:40:05.002Z,89.45
2017-01-18T15:41:27.507Z,89.64
2017-01-18T15:42:49.665Z,88.98
2017-01-18T15:44:12.642Z,89.64
2017-01-18T15:45:35.552Z,89.45
2017-01-18T15:48:20.747Z,89.54
2017-01-18T15:49:44.200Z,89.36
2017-01-18T15:51:06.280Z,89.45
2017-01-18T15:52:28.910Z,89.83
2017-01-18T15:53:51.407Z,90.11
2017-01-18T15:55:13.923Z,90.01
2017-01-18T15:56:37.168Z,90.01
2017-01-18T15:57:59.658Z,90.11
2017-01-18T15:59:22.433Z,90.01
2017-01-18T16:00:44.948Z,89.54
2017-01-18T16:02:07.950Z,90.01
2017-01-18T16:03:30.867Z,89.83
2017-01-18T16:04:52.691Z,89.64
2017-01-18T16:06:15.732Z,89.92
2017-01-18T16:07:37.824Z,90.2
2017-01-18T16:09:00.393Z,89.45
2017-01-18T16:10:22.901Z,90.44
2017-01-18T16:11:45.373Z,89.83
2017-01-18T16:13:07.953Z,89.64
2017-01-18T16:14:30.475Z,90.11
2017-01-18T16:15:52.744Z,90.25
2017-01-18T16:17:14.420Z,90.44
2017-01-18T16:18:36.918Z,90.54
2017-01-18T16:19:59.418Z,91.2
2017-01-18T16:21:21.985Z,90.82
2017-01-18T16:22:44.184Z,90.82
2017-01-18T16:24:06.695Z,90.82
2017-01-18T16:25:29.220Z,90.91
2017-01-18T16:26:51.732Z,90.73
2017-01-18T16:28:14.319Z,90.73
2017-01-18T16:29:36.849Z,90.63
2017-01-18T16:30:59.532Z,90.73
2017-01-18T16:32:22.461Z,90.82
2017-01-18T16:33:44.964Z,90.82
2017-01-18T16:35:07.172Z,90.54
2017-01-18T16:36:29.728Z,90.82
2017-01-18T16:37:51.832Z,90.82
2017-01-18T16:39:14.356Z,91.1
2017-01-18T16:40:36.995Z,91.2
2017-01-18T16:41:59.133Z,91.39
2017-01-18T16:43:21.647Z,90.82
2017-01-18T16:44:44.765Z,91.01
2017-01-18T16:46:07.271Z,90.91
2017-01-18T16:47:29.762Z,91.01
2017-01-18T16:48:53.033Z,90.73
2017-01-18T16:50:15.560Z,90.82
2017-01-18T16:51:38.429Z,90.82
2017-01-18T16:53:00.544Z,91.29
2017-01-18T16:54:23.040Z,91.48
2017-01-18T16:55:45.958Z,91.48
2017-01-18T16:57:08.911Z,91.29
2017-01-18T16:58:31.396Z,91.67
2017-01-18T16:59:54.310Z,91.77
2017-01-18T17:01:17.198Z,92.05
2017-01-18T17:03:11.181Z,91.96
2017-01-18T17:04:34.181Z,92.43
2017-01-18T17:05:56.329Z,92.52
2017-01-18T17:07:18.830Z,92.14
2017-01-18T17:08:41.359Z,92.33
2017-01-18T17:10:03.846Z,92.61
2017-01-18T17:11:26.432Z,92.14
2017-01-18T17:12:49.369Z,92.52
2017-01-18T17:14:11.853Z,92.33
2017-01-18T17:15:34.387Z,92.52
2017-01-18T17:16:56.880Z,92.43
2017-01-18T17:18:19.762Z,92.43
2017-01-18T17:19:42.240Z,92.71
2017-01-18T17:21:04.893Z,93.09
2017-01-18T17:22:27.833Z,92.33
2017-01-18T17:24:22.301Z,92.71
2017-01-18T17:25:44.864Z,92.71
2017-01-18T17:27:08.024Z,92.9
2017-01-18T17:28:30.688Z,93.37
2017-01-18T17:29:53.319Z,93.37
2017-01-18T17:31:15.433Z,92.99
2017-01-18T17:32:38.313Z,93.56
2017-01-18T17:34:00.842Z,93.84
2017-01-18T17:35:23.321Z,93.84
2017-01-18T17:36:45.884Z,93.56
2017-01-18T17:38:08.437Z,93.56
2017-01-18T17:39:31.303Z,93.56
2017-01-18T17:40:54.494Z,93.75
2017-01-18T17:42:17.296Z,93.47
2017-01-18T17:43:39.376Z,93.66
2017-01-18T17:45:01.866Z,93.84
2017-01-18T17:46:24.367Z,93.94
2017-01-18T17:47:46.074Z,93.84
2017-01-18T17:49:09.012Z,93.75
2017-01-18T17:50:31.947Z,93.47